createdAt,value
2022-10-04T00:00:48.000Z,0
2022-10-04T00:02:03.000Z,0
2022-10-04T00:03:19.000Z,0
2022-10-04T00:04:35.000Z,0
2022-10-04T00:05:51.000Z,0
2022-10-04T00:07:07.000Z,0
2022-10-04T00:08:24.235Z,0
2022-10-04T00:09:40.000Z,0
2022-10-04T00:10:56.000Z,0
2022-10-04T00:12:12.000Z,0
2022-10-04T00:13:28.000Z,0
2022-10-04T00:14:44.000Z,0
2022-10-04T00:16:01.118Z,0
2022-10-04T00:17:17.000Z,0
2022-10-04T00:18:32.000Z,0
2022-10-04T00:19:48.591Z,0
2022-10-04T00:21:04.721Z,0
2022-10-04T00:22:20.000Z,0
2022-10-04T00:23:36.000Z,0
2022-10-04T00:24:52.000Z,0
2022-10-04T00:26:09.000Z,0
2022-10-04T00:27:25.000Z,0
2022-10-04T00:28:41.603Z,0
2022-10-04T00:29:57.000Z,0
2022-10-04T00:31:13.000Z,0
2022-10-04T00:32:29.000Z,0
2022-10-04T00:33:45.000Z,0
2022-10-04T00:35:01.000Z,0
2022-10-04T00:36:17.000Z,0
2022-10-04T00:37:33.000Z,0
2022-10-04T00:38:49.000Z,0
2022-10-04T00:40:05.933Z,0
2022-10-04T00:41:21.000Z,0
2022-10-04T00:42:38.000Z,0
2022-10-04T00:43:54.379Z,0
2022-10-04T00:45:10.000Z,0
2022-10-04T00:46:26.000Z,0
2022-10-04T00:47:42.000Z,0
2022-10-04T00:48:58.000Z,0
2022-10-04T00:50:14.000Z,0
2022-10-04T00:51:30.000Z,0
2022-10-04T00:52:46.000Z,0
2022-10-04T00:54:02.000Z,0
2022-10-04T00:55:18.000Z,0
2022-10-04T00:56:34.871Z,0
2022-10-04T00:57:50.000Z,0
2022-10-04T00:59:06.000Z,0
2022-10-04T01:00:23.000Z,0
2022-10-04T01:01:39.000Z,0
2022-10-04T01:02:55.000Z,0
2022-10-04T01:04:11.000Z,0
2022-10-04T01:05:27.885Z,0
2022-10-04T01:06:44.047Z,0
2022-10-04T01:07:58.000Z,0
2022-10-04T01:09:15.000Z,0
2022-10-04T01:10:31.000Z,0
2022-10-04T01:11:47.000Z,0
2022-10-04T01:13:03.783Z,0
2022-10-04T01:14:19.939Z,0
2022-10-04T01:15:35.000Z,0
2022-10-04T01:16:51.000Z,0
2022-10-04T01:18:08.373Z,0
2022-10-04T01:19:24.000Z,0
2022-10-04T01:20:40.000Z,0
2022-10-04T01:21:56.000Z,0
2022-10-04T01:23:12.955Z,0
2022-10-04T01:24:27.000Z,0
2022-10-04T01:25:44.000Z,0
2022-10-04T01:27:00.000Z,0
2022-10-04T01:28:16.578Z,0
2022-10-04T01:29:32.000Z,0
2022-10-04T01:30:48.000Z,0
2022-10-04T01:32:04.000Z,0
2022-10-04T01:33:20.000Z,0
2022-10-04T01:34:37.000Z,0
2022-10-04T01:35:53.000Z,0
2022-10-04T01:37:09.000Z,0
2022-10-04T01:38:25.000Z,0
2022-10-04T01:39:41.000Z,0
2022-10-04T01:40:56.000Z,0
2022-10-04T01:42:12.000Z,0
2022-10-04T01:43:29.000Z,0
2022-10-04T01:44:45.000Z,0
2022-10-04T01:46:01.000Z,0
2022-10-04T01:47:17.000Z,0
2022-10-04T01:48:33.943Z,0
2022-10-04T01:49:49.000Z,0
2022-10-04T01:51:05.000Z,0
2022-10-04T01:52:22.365Z,0
2022-10-04T01:53:38.000Z,0
2022-10-04T01:54:54.000Z,0
2022-10-04T01:56:10.000Z,0
2022-10-04T01:57:25.000Z,0
2022-10-04T01:58:41.000Z,0
2022-10-04T01:59:58.000Z,0
2022-10-04T02:01:14.000Z,0
2022-10-04T02:02:30.000Z,0
2022-10-04T02:03:46.000Z,0
2022-10-04T02:05:01.000Z,0
2022-10-04T02:06:17.000Z,0
2022-10-04T02:07:33.000Z,0
2022-10-04T02:08:50.312Z,0
2022-10-04T02:10:06.000Z,0
2022-10-04T02:11:22.000Z,0
2022-10-04T02:12:38.763Z,0
2022-10-04T02:13:54.000Z,0
2022-10-04T02:15:10.000Z,0
2022-10-04T02:16:26.000Z,0
2022-10-04T02:17:43.000Z,0
2022-10-04T02:18:59.000Z,0
2022-10-04T02:20:15.000Z,0
2022-10-04T02:21:30.000Z,0
2022-10-04T02:22:46.000Z,0
2022-10-04T02:24:02.000Z,0
2022-10-04T02:25:19.000Z,0
2022-10-04T02:26:35.382Z,0
2022-10-04T02:27:51.000Z,0
2022-10-04T02:29:07.000Z,0
2022-10-04T02:30:23.831Z,0
2022-10-04T02:31:39.000Z,0
2022-10-04T02:32:55.000Z,0
2022-10-04T02:34:12.000Z,0
2022-10-04T02:35:28.000Z,0
2022-10-04T02:36:44.561Z,0
2022-10-04T02:37:59.000Z,0
2022-10-04T02:39:15.000Z,0
2022-10-04T02:40:31.000Z,0
2022-10-04T02:41:47.000Z,0
2022-10-04T02:43:04.000Z,0
2022-10-04T02:44:20.000Z,0
2022-10-04T02:45:36.000Z,0
2022-10-04T02:46:52.000Z,0
2022-10-04T02:48:08.000Z,0
2022-10-04T02:49:24.000Z,0
2022-10-04T02:50:40.000Z,0
2022-10-04T02:51:57.000Z,0
2022-10-04T02:53:13.000Z,0
2022-10-04T02:54:28.000Z,0
2022-10-04T02:55:44.801Z,0
2022-10-04T02:57:00.000Z,0
2022-10-04T02:58:16.000Z,0
2022-10-04T02:59:33.230Z,0
2022-10-04T03:00:49.377Z,0
2022-10-04T03:02:05.000Z,0
2022-10-04T03:03:21.000Z,0
2022-10-04T03:04:37.827Z,0
2022-10-04T03:05:53.000Z,0
2022-10-04T03:07:09.000Z,0
2022-10-04T03:08:26.000Z,0
2022-10-04T03:09:42.000Z,0
2022-10-04T03:10:57.000Z,0
2022-10-04T03:12:13.000Z,0
2022-10-04T03:13:29.861Z,0
2022-10-04T03:14:45.000Z,0
2022-10-04T03:16:02.161Z,0
2022-10-04T03:17:18.000Z,0
2022-10-04T03:18:34.447Z,0
2022-10-04T03:19:50.000Z,0
2022-10-04T03:21:06.743Z,0
2022-10-04T03:22:22.889Z,0
2022-10-04T03:23:39.041Z,0
2022-10-04T03:24:54.000Z,0
2022-10-04T03:26:11.328Z,0
2022-10-04T03:27:26.000Z,0
2022-10-04T03:28:42.000Z,0
2022-10-04T03:29:58.000Z,0
2022-10-04T03:31:14.930Z,0
2022-10-04T03:32:30.000Z,0
2022-10-04T03:33:47.000Z,0
2022-10-04T03:35:03.373Z,0
2022-10-04T03:36:19.000Z,0
2022-10-04T03:37:35.000Z,0
2022-10-04T03:38:51.000Z,0
2022-10-04T03:40:07.975Z,0
2022-10-04T03:41:23.000Z,0
2022-10-04T03:42:40.256Z,0
2022-10-04T03:43:55.429Z,0
2022-10-04T03:45:11.585Z,0
2022-10-04T03:46:27.000Z,0
2022-10-04T03:47:43.000Z,0
2022-10-04T03:48:59.000Z,0
2022-10-04T03:50:15.000Z,0
2022-10-04T03:51:32.297Z,0
2022-10-04T03:52:48.000Z,0
2022-10-04T03:54:04.000Z,0
2022-10-04T03:55:20.000Z,0
2022-10-04T03:56:36.888Z,0
2022-10-04T03:57:52.000Z,0
2022-10-04T03:59:08.000Z,0
2022-10-04T04:00:24.000Z,0
2022-10-04T04:01:40.000Z,0
2022-10-04T04:02:56.000Z,0
2022-10-04T04:04:12.000Z,0
2022-10-04T04:05:28.932Z,0
2022-10-04T04:06:44.000Z,0
2022-10-04T04:08:00.000Z,0
2022-10-04T04:09:17.379Z,0
2022-10-04T04:10:33.000Z,0
2022-10-04T04:11:49.000Z,0
2022-10-04T04:13:05.810Z,0
2022-10-04T04:14:21.000Z,0
2022-10-04T04:15:37.000Z,0
2022-10-04T04:16:53.000Z,0
2022-10-04T04:18:09.413Z,0
2022-10-04T04:19:25.000Z,0
2022-10-04T04:20:41.715Z,0
2022-10-04T04:21:57.000Z,0
2022-10-04T04:23:13.000Z,0
2022-10-04T04:24:29.000Z,0
2022-10-04T04:25:46.305Z,0
2022-10-04T04:27:02.000Z,0
2022-10-04T04:28:18.000Z,0
2022-10-04T04:29:34.000Z,0
2022-10-04T04:30:50.000Z,0
2022-10-04T04:32:07.035Z,0
2022-10-04T04:33:21.000Z,0
2022-10-04T04:34:38.339Z,0
2022-10-04T04:35:54.000Z,0
2022-10-04T04:37:10.000Z,0
2022-10-04T04:38:26.780Z,0
2022-10-04T04:39:42.926Z,0
2022-10-04T04:40:58.000Z,0
2022-10-04T04:42:14.000Z,0
2022-10-04T04:43:31.366Z,0
2022-10-04T04:44:47.000Z,0
2022-10-04T04:46:03.000Z,0
2022-10-04T04:47:19.000Z,0
2022-10-04T04:48:35.000Z,0
2022-10-04T04:49:50.000Z,0
2022-10-04T04:51:07.274Z,0
2022-10-04T04:52:23.000Z,0
2022-10-04T04:53:39.565Z,0
2022-10-04T04:54:55.000Z,0
2022-10-04T04:56:11.000Z,0
2022-10-04T04:57:27.000Z,0
2022-10-04T04:58:43.000Z,0
2022-10-04T05:00:00.000Z,0
2022-10-04T05:01:16.000Z,0
2022-10-04T05:02:32.000Z,0
2022-10-04T05:03:48.000Z,0
2022-10-04T05:05:04.000Z,0
2022-10-04T05:06:19.000Z,0
2022-10-04T05:07:36.192Z,0
2022-10-04T05:08:52.348Z,0
2022-10-04T05:10:08.492Z,0
2022-10-04T05:11:24.646Z,0
2022-10-04T05:12:40.778Z,0
2022-10-04T05:13:56.933Z,0
2022-10-04T05:15:12.000Z,0
2022-10-04T05:16:29.221Z,0
2022-10-04T05:17:45.366Z,0
2022-10-04T05:19:01.000Z,0
2022-10-04T05:20:17.000Z,0
2022-10-04T05:21:33.000Z,0
2022-10-04T05:22:48.000Z,0
2022-10-04T05:24:04.000Z,0
2022-10-04T05:25:21.000Z,0
2022-10-04T05:26:37.000Z,0
2022-10-04T05:27:53.000Z,0
2022-10-04T05:29:09.000Z,0
2022-10-04T05:30:25.000Z,0
2022-10-04T05:31:41.000Z,0
2022-10-04T05:32:57.000Z,0
2022-10-04T05:34:14.000Z,0
2022-10-04T05:35:30.000Z,0
2022-10-04T05:36:46.000Z,0
2022-10-04T05:38:02.731Z,0
2022-10-04T05:39:17.000Z,0
2022-10-04T05:40:33.000Z,0
2022-10-04T05:41:49.000Z,5
2022-10-04T05:43:06.332Z,5
2022-10-04T05:44:22.000Z,5
2022-10-04T05:45:38.000Z,5
2022-10-04T05:46:54.773Z,5
2022-10-04T05:48:10.000Z,5
2022-10-04T05:49:26.000Z,5
2022-10-04T05:50:43.216Z,5
2022-10-04T05:51:59.000Z,11
2022-10-04T05:53:15.000Z,11
2022-10-04T05:54:31.656Z,11
2022-10-04T05:55:46.818Z,11
2022-10-04T05:57:02.963Z,11
2022-10-04T05:58:18.000Z,11
2022-10-04T05:59:35.000Z,11
2022-10-04T06:00:51.000Z,11
2022-10-04T06:02:07.000Z,11
2022-10-04T06:03:23.000Z,11
2022-10-04T06:04:39.843Z,16
2022-10-04T06:05:55.000Z,16
2022-10-04T06:07:11.000Z,16
2022-10-04T06:08:28.294Z,16
2022-10-04T06:09:44.000Z,16
2022-10-04T06:11:00.000Z,16
2022-10-04T06:12:15.000Z,16
2022-10-04T06:13:31.000Z,16
2022-10-04T06:14:47.000Z,16
2022-10-04T06:16:04.186Z,16
2022-10-04T06:17:20.000Z,22
2022-10-04T06:18:36.000Z,22
2022-10-04T06:19:51.000Z,22
2022-10-04T06:21:07.787Z,22
2022-10-04T06:22:23.952Z,22
2022-10-04T06:23:40.093Z,22
2022-10-04T06:24:56.000Z,22
2022-10-04T06:26:12.000Z,22
2022-10-04T06:27:28.000Z,22
2022-10-04T06:28:44.000Z,22
2022-10-04T06:30:00.000Z,22
2022-10-04T06:31:16.000Z,22
2022-10-04T06:32:33.114Z,22
2022-10-04T06:33:49.000Z,28
2022-10-04T06:35:05.395Z,28
2022-10-04T06:36:20.000Z,28
2022-10-04T06:37:36.000Z,28
2022-10-04T06:38:52.861Z,28
2022-10-04T06:40:08.000Z,28
2022-10-04T06:41:25.156Z,33
2022-10-04T06:42:41.000Z,28
2022-10-04T06:43:57.430Z,28
2022-10-04T06:45:13.599Z,28
2022-10-04T06:46:29.000Z,33
2022-10-04T06:47:45.873Z,33
2022-10-04T06:49:01.000Z,33
2022-10-04T06:50:17.000Z,33
2022-10-04T06:51:34.000Z,33
2022-10-04T06:52:49.468Z,33
2022-10-04T06:54:05.000Z,33
2022-10-04T06:55:21.764Z,33
2022-10-04T06:56:37.000Z,33
2022-10-04T06:57:54.052Z,33
2022-10-04T06:59:09.000Z,33
2022-10-04T07:00:26.000Z,33
2022-10-04T07:01:42.000Z,33
2022-10-04T07:02:58.634Z,33
2022-10-04T07:04:14.779Z,33
2022-10-04T07:05:30.000Z,33
2022-10-04T07:06:46.000Z,33
2022-10-04T07:08:03.218Z,33
2022-10-04T07:09:18.395Z,39
2022-10-04T07:10:34.528Z,39
2022-10-04T07:11:50.667Z,39
2022-10-04T07:13:06.000Z,39
2022-10-04T07:14:22.000Z,39
2022-10-04T07:15:38.000Z,39
2022-10-04T07:16:55.000Z,39
2022-10-04T07:18:11.400Z,39
2022-10-04T07:19:27.000Z,39
2022-10-04T07:20:43.000Z,39
2022-10-04T07:21:59.840Z,39
2022-10-04T07:23:15.983Z,45
2022-10-04T07:24:31.000Z,45
2022-10-04T07:25:47.289Z,45
2022-10-04T07:27:03.460Z,45
2022-10-04T07:28:19.000Z,45
2022-10-04T07:29:35.000Z,45
2022-10-04T07:30:51.874Z,50
2022-10-04T07:32:08.016Z,50
2022-10-04T07:33:23.000Z,50
2022-10-04T07:34:40.000Z,50
2022-10-04T07:35:56.459Z,50
2022-10-04T07:37:12.602Z,50
2022-10-04T07:38:28.000Z,50
2022-10-04T07:39:44.000Z,56
2022-10-04T07:41:00.000Z,56
2022-10-04T07:42:15.000Z,56
2022-10-04T07:43:32.000Z,56
2022-10-04T07:44:48.000Z,56
2022-10-04T07:46:04.000Z,61
2022-10-04T07:47:20.000Z,61
2022-10-04T07:48:36.941Z,61
2022-10-04T07:49:52.000Z,61
2022-10-04T07:51:08.000Z,61
2022-10-04T07:52:25.000Z,61
2022-10-04T07:53:41.000Z,61
2022-10-04T07:54:57.000Z,61
2022-10-04T07:56:13.000Z,61
2022-10-04T07:57:29.951Z,61
2022-10-04T07:58:44.000Z,61
2022-10-04T08:00:01.262Z,61
2022-10-04T08:01:17.000Z,61
2022-10-04T08:02:33.000Z,67
2022-10-04T08:03:49.000Z,67
2022-10-04T08:05:05.000Z,67
2022-10-04T08:06:21.000Z,67
2022-10-04T08:07:37.000Z,67
2022-10-04T08:08:54.000Z,67
2022-10-04T08:10:10.000Z,67
2022-10-04T08:11:26.000Z,67
2022-10-04T08:12:42.000Z,67
2022-10-04T08:13:58.000Z,73
2022-10-04T08:15:13.000Z,73
2022-10-04T08:16:29.000Z,73
2022-10-04T08:17:46.000Z,73
2022-10-04T08:19:02.000Z,73
2022-10-04T08:20:18.000Z,73
2022-10-04T08:21:34.000Z,73
2022-10-04T08:22:50.000Z,73
2022-10-04T08:24:07.036Z,73
2022-10-04T08:25:22.000Z,73
2022-10-04T08:26:39.000Z,73
2022-10-04T08:27:55.000Z,73
2022-10-04T08:29:11.000Z,73
2022-10-04T08:30:27.000Z,73
2022-10-04T08:31:42.000Z,73
2022-10-04T08:32:58.000Z,73
2022-10-04T08:34:15.225Z,73
2022-10-04T08:35:31.378Z,73
2022-10-04T08:36:47.000Z,78
2022-10-04T08:38:03.000Z,78
2022-10-04T08:39:19.000Z,78
2022-10-04T08:40:35.000Z,78
2022-10-04T08:41:51.000Z,78
2022-10-04T08:43:08.000Z,78
2022-10-04T08:44:24.000Z,84
2022-10-04T08:45:40.000Z,84
2022-10-04T08:46:56.679Z,84
2022-10-04T08:48:11.000Z,84
2022-10-04T08:49:27.977Z,90
2022-10-04T08:50:43.000Z,90
2022-10-04T08:52:00.000Z,90
2022-10-04T08:53:16.425Z,84
2022-10-04T08:54:32.000Z,84
2022-10-04T08:55:48.000Z,78
2022-10-04T08:57:04.000Z,78
2022-10-04T08:58:20.000Z,73
2022-10-04T08:59:36.000Z,67
2022-10-04T09:00:53.000Z,67
2022-10-04T09:02:09.000Z,61
2022-10-04T09:03:25.000Z,61
2022-10-04T09:04:40.000Z,61
2022-10-04T09:05:56.000Z,61
2022-10-04T09:07:12.000Z,61
2022-10-04T09:08:28.000Z,61
2022-10-04T09:09:45.000Z,61
2022-10-04T09:11:01.000Z,61
2022-10-04T09:12:17.000Z,61
2022-10-04T09:13:33.000Z,73
2022-10-04T09:14:49.000Z,95
2022-10-04T09:16:06.052Z,101
2022-10-04T09:17:22.192Z,101
2022-10-04T09:18:38.000Z,84
2022-10-04T09:19:54.000Z,78
2022-10-04T09:21:09.647Z,135
2022-10-04T09:22:25.776Z,129
2022-10-04T09:23:41.000Z,135
2022-10-04T09:24:58.076Z,135
2022-10-04T09:26:13.000Z,135
2022-10-04T09:27:30.000Z,135
2022-10-04T09:28:46.000Z,135
2022-10-04T09:30:02.000Z,135
2022-10-04T09:31:18.793Z,135
2022-10-04T09:32:34.000Z,135
2022-10-04T09:33:50.000Z,135
2022-10-04T09:35:07.237Z,135
2022-10-04T09:36:23.379Z,140
2022-10-04T09:37:38.000Z,140
2022-10-04T09:38:54.000Z,140
2022-10-04T09:40:10.848Z,140
2022-10-04T09:41:26.970Z,140
2022-10-04T09:42:42.000Z,140
2022-10-04T09:43:59.000Z,146
2022-10-04T09:45:15.000Z,146
2022-10-04T09:46:31.000Z,146
2022-10-04T09:47:47.000Z,140
2022-10-04T09:49:03.000Z,140
2022-10-04T09:50:19.000Z,151
2022-10-04T09:51:36.137Z,146
2022-10-04T09:52:52.284Z,146
2022-10-04T09:54:07.000Z,146
2022-10-04T09:55:23.000Z,151
2022-10-04T09:56:39.000Z,146
2022-10-04T09:57:55.876Z,157
2022-10-04T09:59:11.000Z,157
2022-10-04T10:00:27.000Z,168
2022-10-04T10:01:44.316Z,163
2022-10-04T10:03:00.000Z,163
2022-10-04T10:04:16.000Z,180
2022-10-04T10:05:32.747Z,168
2022-10-04T10:06:48.000Z,185
2022-10-04T10:08:04.000Z,168
2022-10-04T10:09:20.000Z,146
2022-10-04T10:10:36.349Z,168
2022-10-04T10:11:52.000Z,78
2022-10-04T10:13:08.000Z,185
2022-10-04T10:14:24.000Z,191
2022-10-04T10:15:40.925Z,185
2022-10-04T10:16:56.000Z,185
2022-10-04T10:18:12.000Z,67
2022-10-04T10:19:29.000Z,191
2022-10-04T10:20:45.518Z,140
2022-10-04T10:22:01.000Z,185
2022-10-04T10:23:17.000Z,163
2022-10-04T10:24:33.959Z,180
2022-10-04T10:25:49.000Z,191
2022-10-04T10:27:05.250Z,174
2022-10-04T10:28:21.409Z,174
2022-10-04T10:29:37.000Z,174
2022-10-04T10:30:53.000Z,196
2022-10-04T10:32:09.000Z,196
2022-10-04T10:33:25.977Z,196
2022-10-04T10:34:40.000Z,191
2022-10-04T10:35:57.000Z,213
2022-10-04T10:37:13.438Z,225
2022-10-04T10:38:29.000Z,208
2022-10-04T10:39:45.723Z,146
2022-10-04T10:41:01.000Z,185
2022-10-04T10:42:17.000Z,213
2022-10-04T10:43:33.000Z,213
2022-10-04T10:44:50.000Z,213
2022-10-04T10:46:06.229Z,236
2022-10-04T10:47:22.000Z,168
2022-10-04T10:49:54.000Z,253
2022-10-04T10:51:10.066Z,84
2022-10-04T10:52:25.000Z,208
2022-10-04T10:53:42.000Z,157
2022-10-04T10:54:58.000Z,140
2022-10-04T10:56:14.000Z,157
2022-10-04T10:57:30.000Z,185
2022-10-04T10:58:46.000Z,230
2022-10-04T11:00:02.000Z,118
2022-10-04T11:01:18.000Z,230
2022-10-04T11:02:35.000Z,118
2022-10-04T11:03:51.000Z,101
2022-10-04T11:05:07.000Z,84
2022-10-04T11:06:23.808Z,146
2022-10-04T11:07:38.000Z,157
2022-10-04T11:08:55.107Z,135
2022-10-04T11:10:11.000Z,140
2022-10-04T11:11:27.000Z,236
2022-10-04T11:12:43.548Z,208
2022-10-04T11:13:59.000Z,213
2022-10-04T11:15:15.000Z,208
2022-10-04T11:16:31.987Z,196
2022-10-04T11:17:47.000Z,180
2022-10-04T11:19:04.000Z,185
2022-10-04T11:20:20.000Z,168
2022-10-04T11:21:36.000Z,174
2022-10-04T11:22:52.000Z,157
2022-10-04T11:24:07.000Z,180
2022-10-04T11:25:24.004Z,196
2022-10-04T11:26:39.000Z,106
2022-10-04T11:27:56.000Z,106
2022-10-04T11:29:12.000Z,112
2022-10-04T11:30:28.000Z,95
2022-10-04T11:31:44.000Z,112
2022-10-04T11:33:00.000Z,101
2022-10-04T11:34:16.000Z,118
2022-10-04T11:35:32.000Z,95
2022-10-04T11:36:49.000Z,106
2022-10-04T11:38:05.000Z,90
2022-10-04T11:39:21.000Z,78
2022-10-04T11:40:36.000Z,118
2022-10-04T11:41:52.000Z,84
2022-10-04T11:43:08.000Z,84
2022-10-04T11:44:24.000Z,84
2022-10-04T11:45:41.000Z,95
2022-10-04T11:46:57.000Z,95
2022-10-04T11:48:13.000Z,95
2022-10-04T11:49:29.000Z,78
2022-10-04T11:50:45.925Z,78
2022-10-04T11:52:01.000Z,67
2022-10-04T11:53:18.214Z,73
2022-10-04T11:54:34.368Z,56
2022-10-04T11:55:50.000Z,56
2022-10-04T11:57:05.000Z,50
2022-10-04T11:58:21.821Z,45
2022-10-04T11:59:37.000Z,50
2022-10-04T12:00:53.000Z,56
2022-10-04T12:02:10.000Z,56
2022-10-04T12:03:26.391Z,56
2022-10-04T12:04:42.000Z,67
2022-10-04T12:05:58.000Z,191
2022-10-04T12:07:14.000Z,196
2022-10-04T12:08:30.977Z,202
2022-10-04T12:09:47.120Z,56
2022-10-04T12:11:03.000Z,101
2022-10-04T12:12:19.000Z,185
2022-10-04T12:13:34.000Z,202
2022-10-04T12:14:50.000Z,84
2022-10-04T12:16:06.000Z,78
2022-10-04T12:17:23.009Z,61
2022-10-04T12:18:39.162Z,101
2022-10-04T12:19:55.000Z,67
2022-10-04T12:21:11.000Z,90
2022-10-04T12:22:27.000Z,67
2022-10-04T12:23:43.000Z,61
2022-10-04T12:24:59.000Z,67
2022-10-04T12:26:15.000Z,67
2022-10-04T12:27:31.000Z,50
2022-10-04T12:28:48.000Z,73
2022-10-04T12:30:03.477Z,67
2022-10-04T12:31:19.000Z,84
2022-10-04T12:32:35.000Z,90
2022-10-04T12:33:51.917Z,61
2022-10-04T12:35:07.000Z,50
2022-10-04T12:36:23.000Z,90
2022-10-04T12:37:40.000Z,196
2022-10-04T12:38:56.502Z,84
2022-10-04T12:40:12.651Z,163
2022-10-04T12:41:28.000Z,101
2022-10-04T12:42:44.932Z,73
2022-10-04T12:44:00.000Z,202
2022-10-04T12:45:17.234Z,213
2022-10-04T12:46:32.000Z,219
2022-10-04T12:47:48.000Z,219
2022-10-04T12:49:04.710Z,208
2022-10-04T12:50:20.000Z,208
2022-10-04T12:51:36.967Z,191
2022-10-04T12:52:52.000Z,106
2022-10-04T12:54:09.000Z,185
2022-10-04T12:55:25.000Z,191
2022-10-04T12:56:41.000Z,191
2022-10-04T12:57:57.698Z,196
2022-10-04T12:59:13.000Z,180
2022-10-04T13:00:29.000Z,157
2022-10-04T13:01:45.000Z,157
2022-10-04T13:03:01.290Z,174
2022-10-04T13:04:17.444Z,163
2022-10-04T13:05:33.000Z,146
2022-10-04T13:06:49.734Z,140
2022-10-04T13:08:05.000Z,129
2022-10-04T13:09:21.000Z,146
2022-10-04T13:10:37.000Z,129
2022-10-04T13:11:54.000Z,129
2022-10-04T13:13:10.000Z,45
2022-10-04T13:14:26.000Z,45
2022-10-04T13:15:42.000Z,67
2022-10-04T13:16:58.891Z,146
2022-10-04T13:18:14.000Z,61
2022-10-04T13:19:29.000Z,56
2022-10-04T13:20:46.000Z,50
2022-10-04T13:22:02.000Z,56
2022-10-04T13:23:18.000Z,135
2022-10-04T13:24:34.803Z,135
2022-10-04T13:25:50.000Z,129
2022-10-04T13:27:06.000Z,112
2022-10-04T13:28:23.224Z,118
2022-10-04T13:29:39.364Z,112
2022-10-04T13:30:55.510Z,56
2022-10-04T13:32:11.651Z,112
2022-10-04T13:33:27.000Z,112
2022-10-04T13:34:43.000Z,106
2022-10-04T13:35:58.000Z,101
2022-10-04T13:37:15.000Z,101
2022-10-04T13:38:31.000Z,95
2022-10-04T13:39:47.000Z,90
2022-10-04T13:41:03.000Z,90
2022-10-04T13:42:19.824Z,90
2022-10-04T13:43:35.000Z,95
2022-10-04T13:44:52.109Z,95
2022-10-04T13:46:08.000Z,78
2022-10-04T13:47:24.421Z,78
2022-10-04T13:49:56.000Z,84
2022-10-04T13:51:12.000Z,90
2022-10-04T13:52:27.000Z,78
2022-10-04T13:53:43.000Z,84
2022-10-04T13:55:00.288Z,90
2022-10-04T13:56:16.000Z,101
2022-10-04T13:57:32.000Z,106
2022-10-04T13:58:48.000Z,101
2022-10-04T14:00:04.000Z,95
2022-10-04T14:01:20.000Z,95
2022-10-04T14:02:37.161Z,90
2022-10-04T14:03:53.000Z,84
2022-10-04T14:05:09.454Z,78
2022-10-04T14:06:25.606Z,73
2022-10-04T14:07:41.000Z,61
2022-10-04T14:08:56.908Z,56
2022-10-04T14:10:13.053Z,56
2022-10-04T14:11:28.000Z,56
2022-10-04T14:12:45.000Z,50
2022-10-04T14:14:01.000Z,50
2022-10-04T14:15:17.000Z,56
2022-10-04T14:16:33.000Z,56
2022-10-04T14:17:49.915Z,61
2022-10-04T14:19:06.059Z,56
2022-10-04T14:20:21.000Z,67
2022-10-04T14:21:38.000Z,56
2022-10-04T14:22:54.000Z,39
2022-10-04T14:24:10.000Z,56
2022-10-04T14:25:25.000Z,56
2022-10-04T14:26:41.000Z,50
2022-10-04T14:27:57.000Z,50
2022-10-04T14:29:14.000Z,50
2022-10-04T14:30:30.000Z,61
2022-10-04T14:31:46.000Z,50
2022-10-04T14:33:02.680Z,45
2022-10-04T14:34:18.000Z,39
2022-10-04T14:35:34.000Z,33
2022-10-04T14:36:50.000Z,39
2022-10-04T14:38:07.000Z,28
2022-10-04T14:39:23.000Z,39
2022-10-04T14:40:39.000Z,39
2022-10-04T14:41:54.000Z,39
2022-10-04T14:43:10.000Z,45
2022-10-04T14:44:26.000Z,50
2022-10-04T14:45:42.000Z,39
2022-10-04T14:46:59.287Z,33
2022-10-04T14:48:15.000Z,33
2022-10-04T14:49:30.000Z,33
2022-10-04T14:50:46.000Z,33
2022-10-04T14:52:02.000Z,33
2022-10-04T14:53:19.054Z,33
2022-10-04T14:54:34.000Z,33
2022-10-04T14:55:51.347Z,33
2022-10-04T14:57:07.000Z,33
2022-10-04T14:58:23.000Z,39
2022-10-04T14:59:39.000Z,39
2022-10-04T15:00:55.000Z,33
2022-10-04T15:02:11.000Z,33
2022-10-04T15:03:27.000Z,33
2022-10-04T15:04:44.000Z,28
2022-10-04T15:05:59.514Z,33
2022-10-04T15:07:15.000Z,33
2022-10-04T15:08:31.800Z,33
2022-10-04T15:09:47.000Z,28
2022-10-04T15:11:03.000Z,33
2022-10-04T15:12:20.000Z,33
2022-10-04T15:13:36.000Z,33
2022-10-04T15:14:52.529Z,39
2022-10-04T15:16:08.000Z,45
2022-10-04T15:17:24.817Z,50
2022-10-04T15:18:40.973Z,56
2022-10-04T15:19:57.126Z,56
2022-10-04T15:21:13.000Z,56
2022-10-04T15:22:28.000Z,56
2022-10-04T15:23:44.000Z,50
2022-10-04T15:25:00.000Z,45
2022-10-04T15:26:16.000Z,39
2022-10-04T15:27:32.000Z,33
2022-10-04T15:28:48.000Z,28
2022-10-04T15:30:05.000Z,28
2022-10-04T15:31:21.000Z,22
2022-10-04T15:32:37.000Z,22
2022-10-04T15:33:53.000Z,22
2022-10-04T15:35:09.000Z,22
2022-10-04T15:36:25.000Z,22
2022-10-04T15:37:42.156Z,22
2022-10-04T15:38:57.319Z,22
2022-10-04T15:40:13.464Z,22
2022-10-04T15:41:29.616Z,22
2022-10-04T15:42:45.000Z,22
2022-10-04T15:44:01.000Z,16
2022-10-04T15:45:17.000Z,16
2022-10-04T15:46:33.000Z,16
2022-10-04T15:47:50.000Z,16
2022-10-04T15:49:06.000Z,16
2022-10-04T15:50:22.632Z,16
2022-10-04T15:51:38.000Z,16
2022-10-04T15:52:54.000Z,16
2022-10-04T15:54:11.061Z,16
2022-10-04T15:55:25.000Z,16
2022-10-04T15:56:42.367Z,16
2022-10-04T15:57:58.512Z,16
2022-10-04T15:59:14.000Z,16
2022-10-04T16:00:30.820Z,16
2022-10-04T16:01:46.000Z,16
2022-10-04T16:03:02.000Z,16
2022-10-04T16:04:19.248Z,16
2022-10-04T16:05:35.388Z,16
2022-10-04T16:06:51.000Z,16
2022-10-04T16:08:07.000Z,16
2022-10-04T16:09:23.000Z,16
2022-10-04T16:10:39.969Z,16
2022-10-04T16:11:54.000Z,16
2022-10-04T16:13:11.274Z,16
2022-10-04T16:14:27.000Z,16
2022-10-04T16:15:43.580Z,11
2022-10-04T16:16:59.000Z,11
2022-10-04T16:18:15.000Z,11
2022-10-04T16:19:31.000Z,11
2022-10-04T16:20:48.158Z,11
2022-10-04T16:22:04.000Z,5
2022-10-04T16:23:20.000Z,5
2022-10-04T16:24:36.000Z,5
2022-10-04T16:25:52.000Z,5
2022-10-04T16:27:08.000Z,5
2022-10-04T16:28:23.000Z,5
2022-10-04T16:29:39.000Z,5
2022-10-04T16:30:56.000Z,5
2022-10-04T16:32:12.496Z,5
2022-10-04T16:33:28.000Z,5
2022-10-04T16:34:44.000Z,0
2022-10-04T16:36:00.000Z,0
2022-10-04T16:37:17.078Z,0
2022-10-04T16:38:33.221Z,0
2022-10-04T16:39:49.000Z,0
2022-10-04T16:41:05.000Z,0
2022-10-04T16:42:21.000Z,0
2022-10-04T16:43:37.805Z,0
2022-10-04T16:44:52.000Z,0
2022-10-04T16:46:08.000Z,0
2022-10-04T16:47:25.000Z,0
2022-10-04T16:48:41.000Z,0
2022-10-04T16:49:57.000Z,0
2022-10-04T16:51:13.717Z,0
2022-10-04T16:52:29.848Z,0
2022-10-04T16:53:45.992Z,0
2022-10-04T16:55:01.000Z,0
2022-10-04T16:56:18.000Z,0
2022-10-04T16:57:34.000Z,0
2022-10-04T16:58:50.578Z,0
2022-10-04T17:00:06.000Z,0
2022-10-04T17:01:21.000Z,0
2022-10-04T17:02:37.000Z,0
2022-10-04T17:03:54.192Z,0
2022-10-04T17:05:10.000Z,0
2022-10-04T17:06:26.000Z,0
2022-10-04T17:07:42.000Z,0
2022-10-04T17:08:58.000Z,0
2022-10-04T17:10:14.910Z,0
2022-10-04T17:11:30.000Z,0
2022-10-04T17:12:46.000Z,0
2022-10-04T17:14:03.000Z,0
2022-10-04T17:15:19.000Z,0
2022-10-04T17:16:35.651Z,0
2022-10-04T17:17:50.000Z,0
2022-10-04T17:19:06.000Z,0
2022-10-04T17:20:22.000Z,0
2022-10-04T17:21:39.000Z,0
2022-10-04T17:22:55.000Z,0
2022-10-04T17:24:11.000Z,0
2022-10-04T17:25:27.000Z,0
2022-10-04T17:26:43.825Z,0
2022-10-04T17:27:59.000Z,0
2022-10-04T17:29:15.000Z,0
2022-10-04T17:30:32.000Z,0
2022-10-04T17:31:48.000Z,0
2022-10-04T17:33:04.000Z,0
2022-10-04T17:34:19.000Z,0
2022-10-04T17:35:35.872Z,0
2022-10-04T17:36:51.000Z,0
2022-10-04T17:38:07.000Z,0
2022-10-04T17:39:24.000Z,0
2022-10-04T17:40:40.000Z,0
2022-10-04T17:41:56.000Z,0
2022-10-04T17:43:12.000Z,0
2022-10-04T17:44:28.000Z,0
2022-10-04T17:45:44.000Z,0
2022-10-04T17:47:00.000Z,0
2022-10-04T17:48:17.347Z,0
2022-10-04T17:49:33.000Z,0
2022-10-04T17:50:48.654Z,0
2022-10-04T17:52:04.000Z,0
2022-10-04T17:53:20.956Z,0
2022-10-04T17:54:36.000Z,0
2022-10-04T17:55:53.000Z,0
2022-10-04T17:57:09.000Z,0
2022-10-04T17:58:25.000Z,0
2022-10-04T17:59:41.000Z,0
2022-10-04T18:00:57.000Z,0
2022-10-04T18:02:13.000Z,0
2022-10-04T18:03:29.000Z,0
2022-10-04T18:04:46.000Z,0
2022-10-04T18:06:02.000Z,0
2022-10-04T18:07:17.000Z,0
2022-10-04T18:08:33.726Z,0
2022-10-04T18:09:49.000Z,0
2022-10-04T18:11:06.013Z,0
2022-10-04T18:12:21.000Z,0
2022-10-04T18:13:38.000Z,0
2022-10-04T18:14:54.000Z,0
2022-10-04T18:16:10.606Z,0
2022-10-04T18:17:26.000Z,0